Fowler, Colorado
Current Conditions -  °F | °C
As of 9:53 AM on Saturday 25 Oct 2014 (Local Time) from KLHX Reporting Station
Clear Clear  
Wind Chill: 64°   Ceiling: Unl
Heat Index: 64°   Visibility: 10mi
Dew Point: 32°   Wind: 10mph
Humidity: 30%   Direction: 250°WSW
Pressure: 30.19"   Gusts: NA
Location:  38.13°N, 104.02°W
Report Text: KLHX 251553Z AUTO 25009KT 10SM CLR 18/00 A3019 RMK AO2 SLP182 T01780000
Loading
Personal Weather Stations






























Interactive Weather Map
Tropical Storm Tracking
New forecast layout! Learn more

10-Day Weather Forecast

Advertisements
Track Severe Weather on mobile